createdAt,value
2022-08-11T00:01:18.599Z,6.40
2022-08-11T00:04:07.395Z,9.60
2022-08-11T00:06:37.814Z,6.60
2022-08-11T00:09:10.753Z,8.70
2022-08-11T00:11:44.369Z,8.40
2022-08-11T00:14:21.572Z,6.90
2022-08-11T00:17:08.666Z,7.20
2022-08-11T00:20:14.208Z,5.40
2022-08-11T00:22:35.127Z,5.40
2022-08-11T00:25:13.029Z,5.70
2022-08-11T00:27:42.023Z,6.80
2022-08-11T00:30:13.229Z,9.90
2022-08-11T00:32:44.319Z,17.30
2022-08-11T00:35:55.474Z,12.60
2022-08-11T00:40:59.930Z,13.20
2022-08-11T00:44:02.508Z,13.00
2022-08-11T00:47:10.005Z,12.40
2022-08-11T00:50:01.530Z,11.60
2022-08-11T00:52:53.664Z,10.30
2022-08-11T00:55:22.040Z,12.40
2022-08-11T00:58:21.921Z,12.00
2022-08-11T01:01:32.466Z,8.30
2022-08-11T01:04:19.336Z,10.30
2022-08-11T01:06:50.181Z,8.40
2022-08-11T01:09:52.240Z,9.50
2022-08-11T01:12:45.428Z,6.40
2022-08-11T01:15:31.832Z,6.20
2022-08-11T01:18:29.979Z,6.80
2022-08-11T01:21:29.079Z,6.20
2022-08-11T01:24:15.582Z,6.30
2022-08-11T01:27:18.771Z,6.40
2022-08-11T01:30:25.106Z,5.90
2022-08-11T01:33:13.762Z,4.70
2022-08-11T01:36:06.796Z,7.40
2022-08-11T01:42:22.259Z,5.50
2022-08-11T01:44:55.967Z,7.40
2022-08-11T01:47:52.901Z,10.10
2022-08-11T01:50:31.326Z,6.90
2022-08-11T01:53:37.617Z,6.20
2022-08-11T01:56:10.987Z,5.60
2022-08-11T01:58:48.730Z,6.00
2022-08-11T02:01:38.159Z,6.20
2022-08-11T02:04:50.601Z,6.80
2022-08-11T02:07:47.546Z,6.70
2022-08-11T02:10:54.736Z,7.10
2022-08-11T02:13:42.127Z,6.90
2022-08-11T02:16:17.750Z,4.40
2022-08-11T02:19:31.125Z,5.00
2022-08-11T02:22:39.484Z,9.50
2022-08-11T02:25:12.755Z,5.10
2022-08-11T02:27:54.342Z,5.20
2022-08-11T02:30:26.302Z,5.60
2022-08-11T02:33:12.983Z,4.70
2022-08-11T02:36:03.998Z,5.00
2022-08-11T02:38:47.117Z,6.20
2022-08-11T02:41:49.215Z,7.00
2022-08-11T02:47:15.437Z,9.60
2022-08-11T02:50:06.378Z,6.60
2022-08-11T02:52:54.072Z,6.10
2022-08-11T02:55:50.863Z,6.30
2022-08-11T02:59:10.343Z,6.80
2022-08-11T03:01:48.477Z,5.20
2022-08-11T03:04:51.607Z,9.30
2022-08-11T03:07:31.548Z,5.70
2022-08-11T03:10:24.297Z,6.40
2022-08-11T03:13:10.698Z,6.00
2022-08-11T03:16:20.756Z,8.20
2022-08-11T03:19:21.183Z,6.50
2022-08-11T03:22:11.372Z,6.60
2022-08-11T03:25:03.508Z,8.80
2022-08-11T03:27:53.288Z,8.60
2022-08-11T03:31:08.874Z,5.40
2022-08-11T03:34:07.455Z,8.30
2022-08-11T03:37:17.291Z,7.10
2022-08-11T03:40:13.748Z,8.70
2022-08-11T03:43:03.734Z,13.00
2022-08-11T03:45:47.987Z,7.60
2022-08-11T03:48:39.812Z,12.00
2022-08-11T03:51:44.813Z,8.50
2022-08-11T03:54:42.929Z,10.10
2022-08-11T03:57:29.430Z,9.50
2022-08-11T04:00:03.551Z,10.00
2022-08-11T04:03:04.895Z,9.40
2022-08-11T04:05:59.080Z,7.20
2022-08-11T04:08:49.166Z,8.90
2022-08-11T04:11:29.528Z,9.10
2022-08-11T04:14:54.019Z,9.00
2022-08-11T04:17:59.878Z,10.60
2022-08-11T04:21:04.453Z,8.40
2022-08-11T04:24:34.894Z,12.40
2022-08-11T04:27:37.234Z,8.10
2022-08-11T04:30:19.367Z,9.90
2022-08-11T04:33:10.858Z,14.20
2022-08-11T04:36:09.933Z,8.40
2022-08-11T04:39:06.268Z,9.60
2022-08-11T04:42:11.715Z,8.50
2022-08-11T04:44:57.911Z,7.80
2022-08-11T04:48:10.631Z,8.00
2022-08-11T04:51:18.848Z,8.10
2022-08-11T04:54:38.115Z,7.20
2022-08-11T04:57:41.616Z,11.40
2022-08-11T05:00:33.342Z,11.40
2022-08-11T05:03:26.604Z,8.40
2022-08-11T05:06:15.667Z,6.90
2022-08-11T05:08:53.775Z,9.00
2022-08-11T05:11:46.014Z,16.80
2022-08-11T05:14:32.726Z,7.90
2022-08-11T05:17:33.665Z,9.50
2022-08-11T05:20:20.884Z,10.00
2022-08-11T05:23:10.667Z,9.40
2022-08-11T05:26:44.597Z,7.00
2022-08-11T05:29:21.765Z,7.30
2022-08-11T05:32:16.461Z,7.90
2022-08-11T05:34:57.041Z,9.50
2022-08-11T05:37:34.411Z,6.90
2022-08-11T05:40:30.647Z,9.30
2022-08-11T05:43:27.594Z,7.90
2022-08-11T05:46:21.686Z,6.80
2022-08-11T05:49:10.844Z,8.30
2022-08-11T05:52:05.901Z,9.30
2022-08-11T05:55:06.444Z,9.20
2022-08-11T05:57:51.643Z,4.70
2022-08-11T06:00:20.653Z,5.20
2022-08-11T06:03:01.518Z,7.20
2022-08-11T06:05:38.485Z,7.50
2022-08-11T06:08:14.214Z,5.10
2022-08-11T06:10:45.295Z,5.40
2022-08-11T06:13:17.918Z,8.20
2022-08-11T06:15:52.530Z,6.10
2022-08-11T06:18:21.366Z,7.50
2022-08-11T06:20:55.201Z,5.70
2022-08-11T06:23:26.332Z,6.20
2022-08-11T06:25:56.526Z,5.70
2022-08-11T06:28:37.752Z,5.50
2022-08-11T06:31:20.755Z,5.70
2022-08-11T06:33:51.695Z,5.40
2022-08-11T06:36:29.084Z,5.00
2022-08-11T06:39:06.372Z,7.00
2022-08-11T06:42:08.337Z,6.50
2022-08-11T06:45:33.958Z,5.40
2022-08-11T06:48:03.208Z,6.60
2022-08-11T06:50:51.913Z,7.50
2022-08-11T06:53:21.419Z,6.70
2022-08-11T06:56:09.253Z,5.10
2022-08-11T06:58:58.930Z,6.00
2022-08-11T07:01:52.061Z,5.20
2022-08-11T07:04:35.523Z,7.40
2022-08-11T07:07:47.524Z,5.70
2022-08-11T07:10:51.025Z,6.70
2022-08-11T07:13:45.088Z,5.90
2022-08-11T07:16:26.409Z,3.50
2022-08-11T07:19:20.374Z,5.80
2022-08-11T07:22:08.304Z,4.80
2022-08-11T07:25:07.403Z,4.70
2022-08-11T07:28:08.599Z,7.20
2022-08-11T07:30:41.844Z,8.90
2022-08-11T07:34:05.503Z,5.80
2022-08-11T07:36:02.284Z,7.90
2022-08-11T07:38:47.501Z,4.30
2022-08-11T07:41:20.826Z,4.10
2022-08-11T07:43:55.449Z,4.20
2022-08-11T07:46:43.190Z,3.90
2022-08-11T07:49:30.555Z,5.50
2022-08-11T07:52:17.726Z,4.60
2022-08-11T07:54:51.201Z,3.40
2022-08-11T07:58:13.609Z,4.70
2022-08-11T08:00:51.631Z,3.80
2022-08-11T08:03:39.509Z,3.50
2022-08-11T08:06:42.447Z,2.90
2022-08-11T08:09:31.153Z,2.70
2022-08-11T08:12:21.242Z,3.00
2022-08-11T08:15:14.198Z,3.00
2022-08-11T08:18:09.505Z,2.90
2022-08-11T08:20:50.382Z,4.50
2022-08-11T08:23:33.945Z,4.40
2022-08-11T08:26:16.624Z,3.10
2022-08-11T08:28:46.815Z,2.80
2022-08-11T08:31:16.048Z,3.80
2022-08-11T08:33:45.248Z,5.20
2022-08-11T08:36:15.672Z,3.70
2022-08-11T08:38:54.308Z,6.10
2022-08-11T08:41:29.967Z,3.20
2022-08-11T08:47:00.900Z,1.90
2022-08-11T08:49:40.293Z,1.90
2022-08-11T08:52:29.514Z,2.00
2022-08-11T08:55:06.176Z,3.20
2022-08-11T08:57:39.179Z,3.90
2022-08-11T09:00:12.452Z,2.30
2022-08-11T09:02:44.359Z,5.20
2022-08-11T09:05:13.133Z,2.60
2022-08-11T09:07:42.239Z,2.20
2022-08-11T09:10:11.781Z,2.10
2022-08-11T09:12:43.077Z,4.60
2022-08-11T09:15:13.007Z,3.60
2022-08-11T09:17:45.958Z,3.30
2022-08-11T09:20:27.577Z,3.80
2022-08-11T09:26:30.611Z,3.50
2022-08-11T09:29:00.847Z,4.10
2022-08-11T09:31:39.693Z,2.20
2022-08-11T09:34:14.231Z,2.50
2022-08-11T09:37:04.005Z,3.30
2022-08-11T09:39:56.578Z,4.00
2022-08-11T09:42:46.127Z,3.60
2022-08-11T09:45:15.630Z,3.10
2022-08-11T09:47:44.892Z,3.00
2022-08-11T09:50:16.721Z,1.30
2022-08-11T09:53:09.975Z,2.80
2022-08-11T09:55:36.546Z,2.10
2022-08-11T09:58:43.310Z,3.20
2022-08-11T10:01:05.659Z,1.80
2022-08-11T10:03:40.555Z,1.30
2022-08-11T10:06:32.843Z,1.70
2022-08-11T10:09:05.556Z,2.80
2022-08-11T10:11:36.904Z,3.10
2022-08-11T10:14:31.368Z,3.90
2022-08-11T10:17:08.581Z,2.00
2022-08-11T10:19:38.904Z,3.10
2022-08-11T10:22:27.713Z,2.00
2022-08-11T10:25:19.784Z,1.20
2022-08-11T10:28:28.224Z,3.30
2022-08-11T10:31:06.688Z,1.60
2022-08-11T10:33:57.668Z,3.50
2022-08-11T10:36:30.419Z,2.20
2022-08-11T10:39:01.057Z,1.40
2022-08-11T10:42:08.282Z,2.00
2022-08-11T10:44:47.984Z,1.90
2022-08-11T10:47:35.213Z,4.40
2022-08-11T10:50:32.406Z,9.00
2022-08-11T10:53:19.987Z,7.90
2022-08-11T10:56:07.735Z,3.20
2022-08-11T10:58:50.029Z,7.20
2022-08-11T11:01:23.001Z,6.20
2022-08-11T11:03:55.181Z,4.20
2022-08-11T11:06:30.064Z,5.20
2022-08-11T11:09:04.605Z,4.30
2022-08-11T11:12:00.152Z,7.50
2022-08-11T11:14:58.105Z,6.30
2022-08-11T11:18:01.808Z,4.20
2022-08-11T11:20:46.716Z,2.80
2022-08-11T11:23:23.674Z,6.40
2022-08-11T11:26:27.538Z,7.10
2022-08-11T11:29:30.015Z,5.40
2022-08-11T11:32:16.670Z,8.40
2022-08-11T11:35:21.811Z,5.40
2022-08-11T11:38:04.479Z,3.20
2022-08-11T11:43:02.967Z,2.10
2022-08-11T11:45:32.558Z,3.10
2022-08-11T11:48:02.443Z,3.20
2022-08-11T11:50:36.388Z,1.30
2022-08-11T11:53:09.853Z,1.70
2022-08-11T11:55:38.625Z,3.10
2022-08-11T11:58:26.985Z,2.40
2022-08-11T12:01:15.640Z,2.70
2022-08-11T12:03:51.194Z,3.40
2022-08-11T12:06:26.416Z,2.10
2022-08-11T12:08:58.288Z,1.80
2022-08-11T12:11:46.941Z,1.10
2022-08-11T12:14:19.620Z,1.80
2022-08-11T12:16:49.235Z,2.00
2022-08-11T12:19:21.702Z,2.20
2022-08-11T12:22:10.154Z,4.40
2022-08-11T12:24:58.191Z,1.00
2022-08-11T12:27:28.413Z,2.20
2022-08-11T12:30:06.127Z,1.40
2022-08-11T12:32:37.299Z,2.10
2022-08-11T12:35:07.370Z,2.40
2022-08-11T12:37:42.511Z,2.10
2022-08-11T12:40:43.711Z,1.20
2022-08-11T12:43:56.566Z,2.90
2022-08-11T12:46:35.028Z,1.60
2022-08-11T12:49:43.252Z,1.60
2022-08-11T12:52:21.860Z,2.30
2022-08-11T12:54:59.154Z,3.00
2022-08-11T12:57:54.528Z,2.90
2022-08-11T13:00:43.502Z,1.70
2022-08-11T13:03:32.552Z,2.60
2022-08-11T13:06:04.212Z,2.00
2022-08-11T13:08:39.855Z,3.40
2022-08-11T13:11:55.871Z,2.20
2022-08-11T13:14:17.579Z,1.40
2022-08-11T13:17:05.921Z,2.60
2022-08-11T13:19:35.425Z,3.30
2022-08-11T13:22:05.355Z,3.20
2022-08-11T13:24:34.743Z,2.10
2022-08-11T13:27:03.671Z,3.50
2022-08-11T13:29:32.016Z,1.80
2022-08-11T13:32:00.703Z,2.00
2022-08-11T13:34:31.544Z,3.10
2022-08-11T13:37:05.669Z,1.90
2022-08-11T13:39:36.380Z,4.80
2022-08-11T13:42:05.956Z,3.50
2022-08-11T13:44:38.297Z,2.90
2022-08-11T13:47:09.004Z,2.10
2022-08-11T13:49:40.752Z,2.00
2022-08-11T13:52:16.936Z,2.40
2022-08-11T13:54:48.345Z,4.80
2022-08-11T13:58:18.289Z,2.20
2022-08-11T14:00:20.887Z,3.60
2022-08-11T14:02:58.409Z,2.80
2022-08-11T14:05:32.464Z,2.20
2022-08-11T14:08:04.143Z,3.50
2022-08-11T14:10:37.493Z,1.90
2022-08-11T14:13:41.209Z,2.70
2022-08-11T14:16:22.301Z,1.80
2022-08-11T14:18:56.004Z,2.20
2022-08-11T14:21:44.861Z,2.50
2022-08-11T14:24:16.618Z,2.20
2022-08-11T14:26:49.401Z,1.90
2022-08-11T14:29:21.691Z,3.50
2022-08-11T14:31:54.749Z,2.90
2022-08-11T14:34:26.469Z,3.30
2022-08-11T14:37:00.631Z,4.30
2022-08-11T14:39:36.334Z,3.00
2022-08-11T14:42:27.391Z,3.10
2022-08-11T14:45:18.300Z,2.50
2022-08-11T14:47:51.489Z,2.50
2022-08-11T14:50:24.240Z,3.70
2022-08-11T14:53:05.349Z,4.30
2022-08-11T14:56:16.533Z,2.90
2022-08-11T14:58:44.898Z,3.60
2022-08-11T15:01:32.131Z,3.00
2022-08-11T15:04:02.632Z,3.70
2022-08-11T15:06:49.114Z,4.60
2022-08-11T15:09:18.259Z,3.30
2022-08-11T15:12:05.481Z,3.20
2022-08-11T15:15:13.691Z,2.50
2022-08-11T15:17:44.162Z,3.50
2022-08-11T15:20:35.135Z,2.70
2022-08-11T15:23:23.782Z,3.70
2022-08-11T15:25:57.893Z,2.50
2022-08-11T15:28:47.112Z,2.60
2022-08-11T15:31:23.161Z,2.50
2022-08-11T15:34:12.898Z,2.70
2022-08-11T15:37:07.389Z,3.60
2022-08-11T15:40:06.387Z,3.70
2022-08-11T15:42:59.547Z,3.50
2022-08-11T15:45:49.429Z,2.60
2022-08-11T15:48:48.642Z,2.40
2022-08-11T15:51:40.552Z,4.30
2022-08-11T15:54:17.749Z,2.10
2022-08-11T15:56:50.528Z,3.50
2022-08-11T15:59:43.007Z,2.80
2022-08-11T16:02:34.188Z,5.70
2022-08-11T16:05:07.173Z,2.50
2022-08-11T16:07:40.499Z,5.10
2022-08-11T16:10:13.994Z,2.70
2022-08-11T16:13:06.324Z,3.60
2022-08-11T16:16:12.879Z,5.90
2022-08-11T16:18:58.869Z,4.50
2022-08-11T16:21:34.884Z,1.80
2022-08-11T16:25:58.230Z,3.70
2022-08-11T16:27:11.671Z,4.10
2022-08-11T16:29:48.198Z,3.20
2022-08-11T16:32:22.121Z,2.70
2022-08-11T16:35:19.768Z,2.80
2022-08-11T16:38:07.607Z,6.30
2022-08-11T16:40:36.083Z,7.50
2022-08-11T16:43:26.480Z,3.40
2022-08-11T16:46:15.643Z,2.60
2022-08-11T16:48:48.325Z,3.60
2022-08-11T16:51:21.052Z,5.60
2022-08-11T16:54:03.957Z,2.00
2022-08-11T16:56:46.022Z,5.20
2022-08-11T16:59:21.161Z,4.60
2022-08-11T17:01:53.618Z,9.40
2022-08-11T17:04:50.173Z,7.10
2022-08-11T17:07:41.622Z,3.50
2022-08-11T17:10:51.727Z,4.70
2022-08-11T17:13:28.432Z,8.10
2022-08-11T17:16:07.011Z,8.00
2022-08-11T17:18:43.717Z,3.70
2022-08-11T17:21:23.463Z,3.80
2022-08-11T17:23:59.314Z,4.20
2022-08-11T17:26:52.375Z,2.40
2022-08-11T17:29:24.954Z,5.20
2022-08-11T17:32:14.115Z,5.20
2022-08-11T17:35:05.969Z,4.70
2022-08-11T17:37:37.502Z,3.20
2022-08-11T17:40:11.358Z,3.40
2022-08-11T17:43:00.683Z,2.90
2022-08-11T17:46:01.516Z,5.00
2022-08-11T17:48:47.450Z,6.60
2022-08-11T17:51:38.646Z,4.10
2022-08-11T17:54:28.182Z,3.90
2022-08-11T17:57:20.872Z,6.50
2022-08-11T17:59:55.116Z,6.20
2022-08-11T18:02:54.326Z,3.40
2022-08-11T18:05:26.839Z,4.10
2022-08-11T18:08:17.381Z,4.80
2022-08-11T18:11:07.113Z,4.10
2022-08-11T18:13:59.019Z,4.20
2022-08-11T18:16:59.703Z,7.10
2022-08-11T18:19:58.014Z,5.90
2022-08-11T18:22:57.159Z,6.10
2022-08-11T18:25:50.163Z,6.40
2022-08-11T18:28:44.198Z,5.40
2022-08-11T18:31:34.593Z,6.40
2022-08-11T18:34:25.193Z,6.60
2022-08-11T18:37:24.736Z,9.30
2022-08-11T18:40:28.509Z,12.50
2022-08-11T18:43:20.346Z,12.90
2022-08-11T18:46:14.073Z,11.00
2022-08-11T18:49:13.112Z,14.80
2022-08-11T18:52:09.238Z,58.00
2022-08-11T18:54:59.222Z,180.60
2022-08-11T18:57:49.728Z,206.90
2022-08-11T19:00:45.608Z,185.70
2022-08-11T19:03:43.480Z,97.50
2022-08-11T19:06:40.949Z,92.70
2022-08-11T19:09:33.022Z,106.50
2022-08-11T19:15:10.019Z,46.40
2022-08-11T19:18:03.118Z,34.10
2022-08-11T19:20:53.257Z,14.10
2022-08-11T19:23:48.772Z,15.60
2022-08-11T19:26:37.016Z,8.00
2022-08-11T19:30:12.635Z,11.00
2022-08-11T19:32:34.081Z,8.00
2022-08-11T19:35:22.644Z,25.40
2022-08-11T19:38:10.475Z,23.70
2022-08-11T19:40:58.619Z,11.50
2022-08-11T19:43:48.298Z,10.20
2022-08-11T19:46:38.997Z,12.90
2022-08-11T19:49:27.755Z,13.80
2022-08-11T19:52:16.158Z,14.40
2022-08-11T19:55:04.857Z,12.60
2022-08-11T19:57:55.459Z,13.40
2022-08-11T20:00:44.215Z,10.80
2022-08-11T20:03:32.867Z,15.00
2022-08-11T20:06:25.002Z,13.50
2022-08-11T20:09:19.184Z,9.20
2022-08-11T20:12:14.236Z,11.60
2022-08-11T20:15:04.482Z,13.70
2022-08-11T20:17:54.878Z,12.80
2022-08-11T20:20:45.478Z,11.70
2022-08-11T20:23:37.612Z,7.50
2022-08-11T20:26:31.124Z,8.30
2022-08-11T20:29:27.529Z,9.10
2022-08-11T20:32:21.203Z,10.30
2022-08-11T20:35:11.994Z,7.00
2022-08-11T20:38:00.133Z,6.80
2022-08-11T20:40:48.482Z,5.20
2022-08-11T20:44:05.607Z,6.40
2022-08-11T20:46:45.859Z,8.70
2022-08-11T20:49:45.233Z,7.10
2022-08-11T20:52:40.711Z,7.40
2022-08-11T20:55:52.271Z,7.70
2022-08-11T20:59:11.136Z,8.80
2022-08-11T21:04:55.176Z,5.70
2022-08-11T21:07:56.798Z,7.10
2022-08-11T21:13:59.549Z,4.70
2022-08-11T21:16:51.831Z,5.00
2022-08-11T21:19:59.984Z,5.80
2022-08-11T21:22:58.940Z,6.80
2022-08-11T21:26:07.630Z,5.20
2022-08-11T21:28:58.537Z,5.50
2022-08-11T21:31:49.062Z,6.50
2022-08-11T21:34:40.761Z,6.50
2022-08-11T21:37:31.068Z,7.60
2022-08-11T21:40:21.655Z,7.20
2022-08-11T21:43:10.717Z,5.80
2022-08-11T21:45:58.963Z,11.80
2022-08-11T21:48:48.740Z,6.60
2022-08-11T21:51:36.372Z,5.80
2022-08-11T21:54:30.659Z,7.00
2022-08-11T21:57:19.414Z,7.50
2022-08-11T22:00:11.958Z,4.90
2022-08-11T22:03:01.739Z,6.30
2022-08-11T22:05:53.362Z,9.50
2022-08-11T22:08:41.309Z,5.00
2022-08-11T22:11:32.269Z,4.50
2022-08-11T22:14:20.759Z,10.20
2022-08-11T22:17:07.467Z,4.60
2022-08-11T22:19:59.644Z,4.50
2022-08-11T22:22:52.971Z,5.20
2022-08-11T22:25:46.554Z,5.00
2022-08-11T22:28:39.184Z,6.20
2022-08-11T22:31:28.043Z,8.00
2022-08-11T22:34:15.082Z,6.40
2022-08-11T22:37:03.707Z,9.30
2022-08-11T22:40:02.666Z,6.00
2022-08-11T22:42:51.671Z,6.00
2022-08-11T22:45:40.023Z,5.10
2022-08-11T22:48:30.106Z,4.80
2022-08-11T22:51:19.478Z,4.40
2022-08-11T22:54:07.209Z,5.60
2022-08-11T22:56:54.941Z,4.30
2022-08-11T22:59:43.390Z,4.90
2022-08-11T23:02:30.825Z,6.10
2022-08-11T23:05:19.168Z,4.40
2022-08-11T23:08:06.588Z,4.70
2022-08-11T23:10:53.808Z,5.60
2022-08-11T23:13:42.260Z,4.90
2022-08-11T23:16:29.478Z,4.70
2022-08-11T23:20:00.279Z,4.50
2022-08-11T23:22:23.991Z,4.10
2022-08-11T23:25:30.668Z,4.50
2022-08-11T23:28:20.448Z,4.50
2022-08-11T23:31:10.173Z,6.80
2022-08-11T23:34:01.544Z,6.00
2022-08-11T23:36:48.457Z,5.40
2022-08-11T23:39:36.274Z,5.60
2022-08-11T23:42:24.111Z,8.10
2022-08-11T23:45:11.142Z,5.00
2022-08-11T23:47:58.774Z,6.70
2022-08-11T23:50:46.811Z,7.00
2022-08-11T23:53:34.543Z,4.10
2022-08-11T23:56:23.348Z,4.40
2022-08-11T23:59:11.135Z,4.40
